sensor_id;sensor_type;location;lat;lon;timestamp;P1;durP1;ratioP1;P2;durP2;ratioP2
69213;SDS011;56325;47.030;18.518;2023-01-23T00:00:08;17.77;;;9.43;;
69213;SDS011;56325;47.030;18.518;2023-01-23T00:02:47;19.37;;;9.67;;
69213;SDS011;56325;47.030;18.518;2023-01-23T00:05:22;17.43;;;8.90;;
69213;SDS011;56325;47.030;18.518;2023-01-23T00:07:57;17.30;;;8.93;;
69213;SDS011;56325;47.030;18.518;2023-01-23T00:10:31;14.20;;;8.60;;
69213;SDS011;56325;47.030;18.518;2023-01-23T00:13:06;13.47;;;7.90;;
69213;SDS011;56325;47.030;18.518;2023-01-23T00:15:40;17.37;;;8.00;;
69213;SDS011;56325;47.030;18.518;2023-01-23T00:18:15;13.70;;;8.43;;
69213;SDS011;56325;47.030;18.518;2023-01-23T00:20:51;17.00;;;7.67;;
69213;SDS011;56325;47.030;18.518;2023-01-23T00:23:25;12.57;;;7.43;;
69213;SDS011;56325;47.030;18.518;2023-01-23T00:26:03;11.03;;;7.87;;
69213;SDS011;56325;47.030;18.518;2023-01-23T00:28:38;15.07;;;7.03;;
69213;SDS011;56325;47.030;18.518;2023-01-23T00:31:13;14.57;;;8.50;;
69213;SDS011;56325;47.030;18.518;2023-01-23T00:33:52;9.37;;;6.73;;
69213;SDS011;56325;47.030;18.518;2023-01-23T00:36:29;9.70;;;7.47;;
69213;SDS011;56325;47.030;18.518;2023-01-23T00:39:07;18.37;;;7.67;;
69213;SDS011;56325;47.030;18.518;2023-01-23T00:41:48;10.10;;;6.77;;
69213;SDS011;56325;47.030;18.518;2023-01-23T00:44:23;12.50;;;7.57;;
69213;SDS011;56325;47.030;18.518;2023-01-23T00:46:57;16.17;;;8.03;;
69213;SDS011;56325;47.030;18.518;2023-01-23T00:49:32;14.17;;;7.73;;
69213;SDS011;56325;47.030;18.518;2023-01-23T00:52:08;16.83;;;8.00;;
69213;SDS011;56325;47.030;18.518;2023-01-23T00:54:43;13.20;;;7.17;;
69213;SDS011;56325;47.030;18.518;2023-01-23T00:57:17;12.73;;;6.50;;
69213;SDS011;56325;47.030;18.518;2023-01-23T00:59:52;12.23;;;6.80;;
69213;SDS011;56325;47.030;18.518;2023-01-23T01:02:31;9.10;;;6.27;;
69213;SDS011;56325;47.030;18.518;2023-01-23T01:05:07;10.27;;;6.53;;
69213;SDS011;56325;47.030;18.518;2023-01-23T01:07:43;12.63;;;6.83;;
69213;SDS011;56325;47.030;18.518;2023-01-23T01:10:19;11.63;;;7.63;;
69213;SDS011;56325;47.030;18.518;2023-01-23T01:12:54;12.83;;;7.50;;
69213;SDS011;56325;47.030;18.518;2023-01-23T01:15:29;9.77;;;5.80;;
69213;SDS011;56325;47.030;18.518;2023-01-23T01:18:03;8.30;;;6.43;;
69213;SDS011;56325;47.030;18.518;2023-01-23T01:20:39;8.87;;;6.40;;
69213;SDS011;56325;47.030;18.518;2023-01-23T01:23:15;12.77;;;7.33;;
69213;SDS011;56325;47.030;18.518;2023-01-23T01:25:50;11.47;;;6.57;;
69213;SDS011;56325;47.030;18.518;2023-01-23T01:28:25;6.33;;;5.67;;
69213;SDS011;56325;47.030;18.518;2023-01-23T01:31:03;9.70;;;6.37;;
69213;SDS011;56325;47.030;18.518;2023-01-23T01:33:39;10.10;;;6.80;;
69213;SDS011;56325;47.030;18.518;2023-01-23T01:36:16;9.90;;;6.90;;
69213;SDS011;56325;47.030;18.518;2023-01-23T01:38:53;12.47;;;6.20;;
69213;SDS011;56325;47.030;18.518;2023-01-23T01:41:29;7.43;;;6.37;;
69213;SDS011;56325;47.030;18.518;2023-01-23T01:44:03;7.50;;;5.80;;
69213;SDS011;56325;47.030;18.518;2023-01-23T01:46:38;7.93;;;6.13;;
69213;SDS011;56325;47.030;18.518;2023-01-23T01:49:16;11.70;;;7.17;;
69213;SDS011;56325;47.030;18.518;2023-01-23T01:51:55;11.55;;;5.90;;
69213;SDS011;56325;47.030;18.518;2023-01-23T01:54:33;7.63;;;6.13;;
69213;SDS011;56325;47.030;18.518;2023-01-23T01:57:13;10.68;;;6.47;;
69213;SDS011;56325;47.030;18.518;2023-01-23T01:59:56;7.90;;;6.17;;
69213;SDS011;56325;47.030;18.518;2023-01-23T02:02:45;11.90;;;7.07;;
69213;SDS011;56325;47.030;18.518;2023-01-23T02:05:25;10.00;;;6.35;;
69213;SDS011;56325;47.030;18.518;2023-01-23T02:08:03;8.53;;;5.97;;
69213;SDS011;56325;47.030;18.518;2023-01-23T02:10:48;8.07;;;5.40;;
69213;SDS011;56325;47.030;18.518;2023-01-23T02:13:25;9.80;;;6.30;;
69213;SDS011;56325;47.030;18.518;2023-01-23T02:16:04;8.75;;;5.75;;
69213;SDS011;56325;47.030;18.518;2023-01-23T02:18:41;7.93;;;6.07;;
69213;SDS011;56325;47.030;18.518;2023-01-23T02:21:19;11.17;;;6.40;;
69213;SDS011;56325;47.030;18.518;2023-01-23T02:24:04;14.93;;;5.77;;
69213;SDS011;56325;47.030;18.518;2023-01-23T02:26:48;5.87;;;5.37;;
69213;SDS011;56325;47.030;18.518;2023-01-23T02:29:23;6.73;;;5.40;;
69213;SDS011;56325;47.030;18.518;2023-01-23T02:31:57;10.40;;;5.17;;
69213;SDS011;56325;47.030;18.518;2023-01-23T02:34:33;8.80;;;6.53;;
69213;SDS011;56325;47.030;18.518;2023-01-23T02:37:09;7.80;;;5.57;;
69213;SDS011;56325;47.030;18.518;2023-01-23T02:39:44;6.57;;;5.50;;
69213;SDS011;56325;47.030;18.518;2023-01-23T02:42:20;6.23;;;5.63;;
69213;SDS011;56325;47.030;18.518;2023-01-23T02:44:57;24.63;;;5.77;;
69213;SDS011;56325;47.030;18.518;2023-01-23T02:47:32;6.43;;;5.83;;
69213;SDS011;56325;47.030;18.518;2023-01-23T02:50:06;7.93;;;5.80;;
69213;SDS011;56325;47.030;18.518;2023-01-23T02:52:42;6.60;;;5.43;;
69213;SDS011;56325;47.030;18.518;2023-01-23T02:55:17;10.83;;;5.63;;
69213;SDS011;56325;47.030;18.518;2023-01-23T02:57:55;7.97;;;6.13;;
69213;SDS011;56325;47.030;18.518;2023-01-23T03:00:50;8.77;;;5.93;;
69213;SDS011;56325;47.030;18.518;2023-01-23T03:03:26;8.47;;;5.17;;
69213;SDS011;56325;47.030;18.518;2023-01-23T03:06:03;9.10;;;6.10;;
69213;SDS011;56325;47.030;18.518;2023-01-23T03:08:38;10.30;;;5.23;;
69213;SDS011;56325;47.030;18.518;2023-01-23T03:11:19;6.27;;;5.53;;
69213;SDS011;56325;47.030;18.518;2023-01-23T03:13:56;8.20;;;5.47;;
69213;SDS011;56325;47.030;18.518;2023-01-23T03:16:31;7.87;;;5.30;;
69213;SDS011;56325;47.030;18.518;2023-01-23T03:19:09;6.10;;;5.53;;
69213;SDS011;56325;47.030;18.518;2023-01-23T03:21:44;10.90;;;6.43;;
69213;SDS011;56325;47.030;18.518;2023-01-23T03:24:19;13.07;;;5.37;;
69213;SDS011;56325;47.030;18.518;2023-01-23T03:26:54;7.97;;;5.97;;
69213;SDS011;56325;47.030;18.518;2023-01-23T03:29:30;5.93;;;5.37;;
69213;SDS011;56325;47.030;18.518;2023-01-23T03:32:22;7.10;;;5.73;;
69213;SDS011;56325;47.030;18.518;2023-01-23T03:34:57;5.73;;;4.87;;
69213;SDS011;56325;47.030;18.518;2023-01-23T03:37:32;8.33;;;5.77;;
69213;SDS011;56325;47.030;18.518;2023-01-23T03:40:08;10.67;;;6.20;;
69213;SDS011;56325;47.030;18.518;2023-01-23T03:43:05;5.80;;;4.80;;
69213;SDS011;56325;47.030;18.518;2023-01-23T03:45:41;10.13;;;5.07;;
69213;SDS011;56325;47.030;18.518;2023-01-23T03:48:16;5.53;;;5.03;;
69213;SDS011;56325;47.030;18.518;2023-01-23T03:50:50;6.17;;;5.23;;
69213;SDS011;56325;47.030;18.518;2023-01-23T03:53:26;7.83;;;5.90;;
69213;SDS011;56325;47.030;18.518;2023-01-23T03:56:00;4.83;;;4.47;;
69213;SDS011;56325;47.030;18.518;2023-01-23T03:58:35;10.37;;;5.83;;
69213;SDS011;56325;47.030;18.518;2023-01-23T04:01:12;5.10;;;4.60;;
69213;SDS011;56325;47.030;18.518;2023-01-23T04:03:47;5.80;;;5.17;;
69213;SDS011;56325;47.030;18.518;2023-01-23T04:06:22;6.17;;;4.70;;
69213;SDS011;56325;47.030;18.518;2023-01-23T04:08:56;5.87;;;5.10;;
69213;SDS011;56325;47.030;18.518;2023-01-23T04:11:32;6.60;;;4.70;;
69213;SDS011;56325;47.030;18.518;2023-01-23T04:14:06;9.87;;;5.80;;
69213;SDS011;56325;47.030;18.518;2023-01-23T04:16:42;9.77;;;6.40;;
69213;SDS011;56325;47.030;18.518;2023-01-23T04:19:17;13.33;;;5.73;;
69213;SDS011;56325;47.030;18.518;2023-01-23T04:21:52;6.70;;;5.73;;
69213;SDS011;56325;47.030;18.518;2023-01-23T04:24:27;6.33;;;5.27;;
69213;SDS011;56325;47.030;18.518;2023-01-23T04:27:01;8.40;;;5.50;;
69213;SDS011;56325;47.030;18.518;2023-01-23T04:29:37;6.37;;;5.03;;
69213;SDS011;56325;47.030;18.518;2023-01-23T04:32:13;7.07;;;5.77;;
69213;SDS011;56325;47.030;18.518;2023-01-23T04:34:48;5.50;;;4.93;;
69213;SDS011;56325;47.030;18.518;2023-01-23T04:37:22;5.60;;;5.10;;
69213;SDS011;56325;47.030;18.518;2023-01-23T04:39:59;6.13;;;5.53;;
69213;SDS011;56325;47.030;18.518;2023-01-23T04:42:39;9.52;;;5.12;;
69213;SDS011;56325;47.030;18.518;2023-01-23T04:45:14;6.93;;;4.90;;
69213;SDS011;56325;47.030;18.518;2023-01-23T04:47:51;5.30;;;3.80;;
69213;SDS011;56325;47.030;18.518;2023-01-23T04:50:26;94.20;;;68.73;;
69213;SDS011;56325;47.030;18.518;2023-01-23T04:53:01;5.87;;;5.37;;
69213;SDS011;56325;47.030;18.518;2023-01-23T04:55:35;6.27;;;5.27;;
69213;SDS011;56325;47.030;18.518;2023-01-23T04:58:10;5.70;;;4.97;;
69213;SDS011;56325;47.030;18.518;2023-01-23T05:00:45;7.53;;;5.40;;
69213;SDS011;56325;47.030;18.518;2023-01-23T05:03:25;6.07;;;5.33;;
69213;SDS011;56325;47.030;18.518;2023-01-23T05:06:00;6.53;;;5.30;;
69213;SDS011;56325;47.030;18.518;2023-01-23T05:08:35;6.50;;;5.00;;
69213;SDS011;56325;47.030;18.518;2023-01-23T05:11:10;5.17;;;4.67;;
69213;SDS011;56325;47.030;18.518;2023-01-23T05:13:45;7.43;;;5.33;;
69213;SDS011;56325;47.030;18.518;2023-01-23T05:16:20;5.97;;;4.40;;
69213;SDS011;56325;47.030;18.518;2023-01-23T05:18:56;5.63;;;5.07;;
69213;SDS011;56325;47.030;18.518;2023-01-23T05:21:31;4.90;;;4.50;;
69213;SDS011;56325;47.030;18.518;2023-01-23T05:24:06;4.17;;;3.87;;
69213;SDS011;56325;47.030;18.518;2023-01-23T05:26:42;4.47;;;4.07;;
69213;SDS011;56325;47.030;18.518;2023-01-23T05:29:17;4.37;;;3.97;;
69213;SDS011;56325;47.030;18.518;2023-01-23T05:31:52;67.30;;;42.17;;
69213;SDS011;56325;47.030;18.518;2023-01-23T05:34:30;8.33;;;7.53;;
69213;SDS011;56325;47.030;18.518;2023-01-23T05:37:05;6.97;;;5.50;;
69213;SDS011;56325;47.030;18.518;2023-01-23T05:39:40;281.43;;;189.27;;
69213;SDS011;56325;47.030;18.518;2023-01-23T05:42:16;25.47;;;12.13;;
69213;SDS011;56325;47.030;18.518;2023-01-23T05:44:52;63.83;;;23.20;;
69213;SDS011;56325;47.030;18.518;2023-01-23T05:47:27;49.63;;;18.13;;
69213;SDS011;56325;47.030;18.518;2023-01-23T05:50:04;16.10;;;9.87;;
69213;SDS011;56325;47.030;18.518;2023-01-23T05:52:42;16.48;;;8.48;;
69213;SDS011;56325;47.030;18.518;2023-01-23T05:55:17;100.53;;;71.83;;
69213;SDS011;56325;47.030;18.518;2023-01-23T05:57:52;10.17;;;8.50;;
69213;SDS011;56325;47.030;18.518;2023-01-23T06:00:29;6.73;;;6.13;;
69213;SDS011;56325;47.030;18.518;2023-01-23T06:03:05;6.83;;;6.13;;
69213;SDS011;56325;47.030;18.518;2023-01-23T06:05:43;6.90;;;6.20;;
69213;SDS011;56325;47.030;18.518;2023-01-23T06:08:18;6.93;;;5.33;;
69213;SDS011;56325;47.030;18.518;2023-01-23T06:10:56;5.50;;;5.00;;
69213;SDS011;56325;47.030;18.518;2023-01-23T06:13:31;43.67;;;21.87;;
69213;SDS011;56325;47.030;18.518;2023-01-23T06:16:06;12.57;;;9.33;;
69213;SDS011;56325;47.030;18.518;2023-01-23T06:18:42;5.30;;;4.90;;
69213;SDS011;56325;47.030;18.518;2023-01-23T06:21:19;7.13;;;4.80;;
69213;SDS011;56325;47.030;18.518;2023-01-23T06:23:54;4.93;;;4.63;;
69213;SDS011;56325;47.030;18.518;2023-01-23T06:26:28;6.83;;;5.43;;
69213;SDS011;56325;47.030;18.518;2023-01-23T06:29:03;6.40;;;5.17;;
69213;SDS011;56325;47.030;18.518;2023-01-23T06:31:37;7.20;;;6.17;;
69213;SDS011;56325;47.030;18.518;2023-01-23T06:34:12;6.23;;;4.80;;
69213;SDS011;56325;47.030;18.518;2023-01-23T06:36:49;5.57;;;5.03;;
69213;SDS011;56325;47.030;18.518;2023-01-23T06:39:24;12.10;;;5.53;;
69213;SDS011;56325;47.030;18.518;2023-01-23T06:41:59;11.07;;;6.50;;
69213;SDS011;56325;47.030;18.518;2023-01-23T06:44:33;8.37;;;5.53;;
69213;SDS011;56325;47.030;18.518;2023-01-23T06:47:09;142.87;;;89.87;;
69213;SDS011;56325;47.030;18.518;2023-01-23T06:49:45;21.70;;;12.07;;
69213;SDS011;56325;47.030;18.518;2023-01-23T06:52:21;19.97;;;8.77;;
69213;SDS011;56325;47.030;18.518;2023-01-23T06:54:56;25.10;;;9.00;;
69213;SDS011;56325;47.030;18.518;2023-01-23T06:57:32;19.23;;;7.70;;
69213;SDS011;56325;47.030;18.518;2023-01-23T07:02:55;5.68;;;4.78;;
69213;SDS011;56325;47.030;18.518;2023-01-23T07:05:34;9.43;;;6.67;;
69213;SDS011;56325;47.030;18.518;2023-01-23T07:08:11;6.87;;;5.50;;
69213;SDS011;56325;47.030;18.518;2023-01-23T07:10:48;8.67;;;5.23;;
69213;SDS011;56325;47.030;18.518;2023-01-23T07:13:22;5.10;;;4.20;;
69213;SDS011;56325;47.030;18.518;2023-01-23T07:15:57;5.30;;;4.80;;
69213;SDS011;56325;47.030;18.518;2023-01-23T07:18:33;6.43;;;5.27;;
69213;SDS011;56325;47.030;18.518;2023-01-23T07:21:08;5.50;;;4.47;;
69213;SDS011;56325;47.030;18.518;2023-01-23T07:23:42;4.67;;;4.33;;
69213;SDS011;56325;47.030;18.518;2023-01-23T07:26:17;27.40;;;20.00;;
69213;SDS011;56325;47.030;18.518;2023-01-23T07:28:52;4.90;;;4.53;;
69213;SDS011;56325;47.030;18.518;2023-01-23T07:31:26;6.97;;;4.53;;
69213;SDS011;56325;47.030;18.518;2023-01-23T07:34:02;4.67;;;4.13;;
69213;SDS011;56325;47.030;18.518;2023-01-23T07:36:37;5.80;;;5.30;;
69213;SDS011;56325;47.030;18.518;2023-01-23T07:39:11;4.53;;;4.23;;
69213;SDS011;56325;47.030;18.518;2023-01-23T07:41:45;4.90;;;4.40;;
69213;SDS011;56325;47.030;18.518;2023-01-23T07:44:20;4.40;;;4.00;;
69213;SDS011;56325;47.030;18.518;2023-01-23T07:46:55;7.10;;;5.93;;
69213;SDS011;56325;47.030;18.518;2023-01-23T07:49:31;137.33;;;101.70;;
69213;SDS011;56325;47.030;18.518;2023-01-23T07:52:06;6.73;;;5.80;;
69213;SDS011;56325;47.030;18.518;2023-01-23T07:54:40;5.47;;;4.20;;
69213;SDS011;56325;47.030;18.518;2023-01-23T07:57:15;3.70;;;3.50;;
69213;SDS011;56325;47.030;18.518;2023-01-23T07:59:49;3.50;;;3.30;;
69213;SDS011;56325;47.030;18.518;2023-01-23T08:02:24;3.50;;;3.20;;
69213;SDS011;56325;47.030;18.518;2023-01-23T08:05:00;3.37;;;3.10;;
69213;SDS011;56325;47.030;18.518;2023-01-23T08:07:34;3.63;;;3.43;;
69213;SDS011;56325;47.030;18.518;2023-01-23T08:10:10;3.60;;;3.30;;
69213;SDS011;56325;47.030;18.518;2023-01-23T08:12:45;3.40;;;3.20;;
69213;SDS011;56325;47.030;18.518;2023-01-23T08:15:19;3.10;;;2.90;;
69213;SDS011;56325;47.030;18.518;2023-01-23T08:17:54;3.73;;;3.53;;
69213;SDS011;56325;47.030;18.518;2023-01-23T08:20:30;3.70;;;3.47;;
69213;SDS011;56325;47.030;18.518;2023-01-23T08:23:04;4.27;;;3.73;;
69213;SDS011;56325;47.030;18.518;2023-01-23T08:25:39;149.90;;;90.77;;
69213;SDS011;56325;47.030;18.518;2023-01-23T08:28:13;9.17;;;5.13;;
69213;SDS011;56325;47.030;18.518;2023-01-23T08:30:48;3.53;;;3.20;;
69213;SDS011;56325;47.030;18.518;2023-01-23T08:33:23;4.20;;;3.77;;
69213;SDS011;56325;47.030;18.518;2023-01-23T08:35:59;3.43;;;3.23;;
69213;SDS011;56325;47.030;18.518;2023-01-23T08:38:34;5.70;;;4.97;;
69213;SDS011;56325;47.030;18.518;2023-01-23T08:41:09;3.50;;;3.20;;
69213;SDS011;56325;47.030;18.518;2023-01-23T08:43:44;3.77;;;3.57;;
69213;SDS011;56325;47.030;18.518;2023-01-23T08:46:18;6.47;;;5.80;;
69213;SDS011;56325;47.030;18.518;2023-01-23T08:48:53;9.80;;;5.43;;
69213;SDS011;56325;47.030;18.518;2023-01-23T08:51:29;51.50;;;16.27;;
69213;SDS011;56325;47.030;18.518;2023-01-23T08:54:04;29.63;;;13.00;;
69213;SDS011;56325;47.030;18.518;2023-01-23T08:56:38;18.40;;;9.43;;
69213;SDS011;56325;47.030;18.518;2023-01-23T08:59:13;15.10;;;7.40;;
69213;SDS011;56325;47.030;18.518;2023-01-23T09:01:48;18.73;;;9.20;;
69213;SDS011;56325;47.030;18.518;2023-01-23T09:04:23;14.77;;;12.27;;
69213;SDS011;56325;47.030;18.518;2023-01-23T09:06:59;14.53;;;7.07;;
69213;SDS011;56325;47.030;18.518;2023-01-23T09:09:33;17.30;;;9.50;;
69213;SDS011;56325;47.030;18.518;2023-01-23T09:12:08;6.70;;;6.00;;
69213;SDS011;56325;47.030;18.518;2023-01-23T09:14:42;7.83;;;6.27;;
69213;SDS011;56325;47.030;18.518;2023-01-23T09:17:17;5.70;;;5.23;;
69213;SDS011;56325;47.030;18.518;2023-01-23T09:19:52;5.60;;;5.20;;
69213;SDS011;56325;47.030;18.518;2023-01-23T09:22:28;7.77;;;6.77;;
69213;SDS011;56325;47.030;18.518;2023-01-23T09:25:03;13.60;;;7.27;;
69213;SDS011;56325;47.030;18.518;2023-01-23T09:27:38;6.87;;;5.33;;
69213;SDS011;56325;47.030;18.518;2023-01-23T09:30:14;4.97;;;4.67;;
69213;SDS011;56325;47.030;18.518;2023-01-23T09:32:50;4.73;;;3.90;;
69213;SDS011;56325;47.030;18.518;2023-01-23T09:35:26;4.67;;;4.30;;
69213;SDS011;56325;47.030;18.518;2023-01-23T09:38:02;5.17;;;4.20;;
69213;SDS011;56325;47.030;18.518;2023-01-23T09:40:43;3.97;;;3.50;;
69213;SDS011;56325;47.030;18.518;2023-01-23T09:43:22;5.00;;;3.50;;
69213;SDS011;56325;47.030;18.518;2023-01-23T09:46:02;3.97;;;3.67;;
69213;SDS011;56325;47.030;18.518;2023-01-23T09:48:46;3.50;;;3.23;;
69213;SDS011;56325;47.030;18.518;2023-01-23T09:51:24;4.80;;;3.37;;
69213;SDS011;56325;47.030;18.518;2023-01-23T09:54:06;12.60;;;10.93;;
69213;SDS011;56325;47.030;18.518;2023-01-23T09:56:50;137.87;;;43.53;;
69213;SDS011;56325;47.030;18.518;2023-01-23T09:59:28;406.00;;;123.63;;
69213;SDS011;56325;47.030;18.518;2023-01-23T10:02:25;200.67;;;74.00;;
69213;SDS011;56325;47.030;18.518;2023-01-23T10:05:00;210.73;;;50.43;;
69213;SDS011;56325;47.030;18.518;2023-01-23T10:07:39;50.90;;;20.10;;
69213;SDS011;56325;47.030;18.518;2023-01-23T10:10:39;7.43;;;6.67;;
69213;SDS011;56325;47.030;18.518;2023-01-23T10:13:23;10.40;;;6.80;;
69213;SDS011;56325;47.030;18.518;2023-01-23T10:16:15;9.67;;;5.97;;
69213;SDS011;56325;47.030;18.518;2023-01-23T10:19:06;4.63;;;4.03;;
69213;SDS011;56325;47.030;18.518;2023-01-23T10:21:50;6.97;;;5.37;;
69213;SDS011;56325;47.030;18.518;2023-01-23T10:24:32;6.80;;;4.63;;
69213;SDS011;56325;47.030;18.518;2023-01-23T10:27:20;10.17;;;5.33;;
69213;SDS011;56325;47.030;18.518;2023-01-23T10:29:57;562.33;;;127.70;;
69213;SDS011;56325;47.030;18.518;2023-01-23T10:32:39;613.43;;;175.67;;
69213;SDS011;56325;47.030;18.518;2023-01-23T10:35:21;260.20;;;71.33;;
69213;SDS011;56325;47.030;18.518;2023-01-23T10:38:04;23.97;;;12.83;;
69213;SDS011;56325;47.030;18.518;2023-01-23T10:40:48;11.07;;;8.57;;
69213;SDS011;56325;47.030;18.518;2023-01-23T10:43:42;14.50;;;6.83;;
69213;SDS011;56325;47.030;18.518;2023-01-23T10:46:19;39.50;;;19.17;;
69213;SDS011;56325;47.030;18.518;2023-01-23T10:48:57;7.23;;;4.10;;
69213;SDS011;56325;47.030;18.518;2023-01-23T10:51:34;3.60;;;3.30;;
69213;SDS011;56325;47.030;18.518;2023-01-23T10:54:19;4.57;;;4.10;;
69213;SDS011;56325;47.030;18.518;2023-01-23T10:57:17;5.30;;;4.23;;
69213;SDS011;56325;47.030;18.518;2023-01-23T10:59:59;3.23;;;3.10;;
69213;SDS011;56325;47.030;18.518;2023-01-23T11:02:36;3.70;;;3.50;;
69213;SDS011;56325;47.030;18.518;2023-01-23T11:08:23;3.55;;;3.35;;
69213;SDS011;56325;47.030;18.518;2023-01-23T11:11:19;13.93;;;4.20;;
69213;SDS011;56325;47.030;18.518;2023-01-23T11:14:04;3.70;;;3.47;;
69213;SDS011;56325;47.030;18.518;2023-01-23T11:16:42;3.53;;;3.23;;
69213;SDS011;56325;47.030;18.518;2023-01-23T11:19:17;9.07;;;5.80;;
69213;SDS011;56325;47.030;18.518;2023-01-23T11:21:55;4.00;;;3.70;;
69213;SDS011;56325;47.030;18.518;2023-01-23T11:24:32;3.27;;;3.10;;
69213;SDS011;56325;47.030;18.518;2023-01-23T11:27:16;3.40;;;3.10;;
69213;SDS011;56325;47.030;18.518;2023-01-23T11:33:16;3.00;;;2.80;;
69213;SDS011;56325;47.030;18.518;2023-01-23T11:36:01;3.20;;;3.10;;
69213;SDS011;56325;47.030;18.518;2023-01-23T11:38:44;2.80;;;2.70;;
69213;SDS011;56325;47.030;18.518;2023-01-23T11:41:26;3.47;;;3.17;;
69213;SDS011;56325;47.030;18.518;2023-01-23T11:44:04;4.13;;;3.80;;
69213;SDS011;56325;47.030;18.518;2023-01-23T11:46:53;2.87;;;2.70;;
69213;SDS011;56325;47.030;18.518;2023-01-23T11:49:47;3.70;;;3.40;;
69213;SDS011;56325;47.030;18.518;2023-01-23T11:52:47;7.07;;;5.60;;
69213;SDS011;56325;47.030;18.518;2023-01-23T11:55:40;7.77;;;5.77;;
69213;SDS011;56325;47.030;18.518;2023-01-23T11:58:50;5.73;;;5.13;;
69213;SDS011;56325;47.030;18.518;2023-01-23T12:01:47;13.53;;;6.60;;
69213;SDS011;56325;47.030;18.518;2023-01-23T12:07:43;6.77;;;5.13;;
69213;SDS011;56325;47.030;18.518;2023-01-23T12:10:27;7.17;;;5.30;;
69213;SDS011;56325;47.030;18.518;2023-01-23T12:13:12;4.03;;;3.83;;
69213;SDS011;56325;47.030;18.518;2023-01-23T12:15:59;5.43;;;4.10;;
69213;SDS011;56325;47.030;18.518;2023-01-23T12:18:43;4.73;;;4.33;;
69213;SDS011;56325;47.030;18.518;2023-01-23T12:21:28;5.83;;;4.27;;
69213;SDS011;56325;47.030;18.518;2023-01-23T12:24:12;2.97;;;2.87;;
69213;SDS011;56325;47.030;18.518;2023-01-23T12:26:56;4.37;;;4.07;;
69213;SDS011;56325;47.030;18.518;2023-01-23T12:29:47;18.43;;;12.87;;
69213;SDS011;56325;47.030;18.518;2023-01-23T12:32:51;5.53;;;3.40;;
69213;SDS011;56325;47.030;18.518;2023-01-23T12:35:35;3.40;;;3.20;;
69213;SDS011;56325;47.030;18.518;2023-01-23T12:38:27;4.10;;;3.80;;
69213;SDS011;56325;47.030;18.518;2023-01-23T12:41:07;4.10;;;3.80;;
69213;SDS011;56325;47.030;18.518;2023-01-23T12:43:47;4.10;;;3.80;;
69213;SDS011;56325;47.030;18.518;2023-01-23T12:46:30;4.27;;;3.93;;
69213;SDS011;56325;47.030;18.518;2023-01-23T12:49:14;3.40;;;3.20;;
69213;SDS011;56325;47.030;18.518;2023-01-23T12:51:56;8.53;;;5.07;;
69213;SDS011;56325;47.030;18.518;2023-01-23T12:57:14;28.77;;;11.73;;
69213;SDS011;56325;47.030;18.518;2023-01-23T13:00:37;18.40;;;12.20;;
69213;SDS011;56325;47.030;18.518;2023-01-23T13:03:34;15.80;;;12.50;;
69213;SDS011;56325;47.030;18.518;2023-01-23T13:06:27;12.47;;;8.53;;
69213;SDS011;56325;47.030;18.518;2023-01-23T13:09:12;6.13;;;5.53;;
69213;SDS011;56325;47.030;18.518;2023-01-23T13:11:59;21.10;;;7.93;;
69213;SDS011;56325;47.030;18.518;2023-01-23T13:14:43;6.60;;;6.07;;
69213;SDS011;56325;47.030;18.518;2023-01-23T13:17:38;13.10;;;6.33;;
69213;SDS011;56325;47.030;18.518;2023-01-23T13:20:19;7.00;;;5.93;;
69213;SDS011;56325;47.030;18.518;2023-01-23T13:23:19;9.23;;;6.03;;
69213;SDS011;56325;47.030;18.518;2023-01-23T13:29:06;7.50;;;5.90;;
69213;SDS011;56325;47.030;18.518;2023-01-23T13:32:19;6.30;;;5.70;;
69213;SDS011;56325;47.030;18.518;2023-01-23T13:34:54;6.93;;;6.23;;
69213;SDS011;56325;47.030;18.518;2023-01-23T13:40:24;9.77;;;7.33;;
69213;SDS011;56325;47.030;18.518;2023-01-23T13:42:58;7.60;;;4.33;;
69213;SDS011;56325;47.030;18.518;2023-01-23T13:46:12;5.10;;;4.80;;
69213;SDS011;56325;47.030;18.518;2023-01-23T13:49:01;5.63;;;4.67;;
69213;SDS011;56325;47.030;18.518;2023-01-23T13:52:14;7.27;;;5.90;;
69213;SDS011;56325;47.030;18.518;2023-01-23T13:55:24;4.27;;;3.97;;
69213;SDS011;56325;47.030;18.518;2023-01-23T13:58:33;8.93;;;7.77;;
69213;SDS011;56325;47.030;18.518;2023-01-23T14:01:23;18.77;;;10.73;;
69213;SDS011;56325;47.030;18.518;2023-01-23T14:04:32;5.57;;;5.03;;
69213;SDS011;56325;47.030;18.518;2023-01-23T14:07:26;18.57;;;11.43;;
69213;SDS011;56325;47.030;18.518;2023-01-23T14:10:32;23.73;;;12.60;;
69213;SDS011;56325;47.030;18.518;2023-01-23T14:17:02;18.47;;;9.87;;
69213;SDS011;56325;47.030;18.518;2023-01-23T14:19:52;8.03;;;7.23;;
69213;SDS011;56325;47.030;18.518;2023-01-23T14:22:45;63.20;;;40.57;;
69213;SDS011;56325;47.030;18.518;2023-01-23T14:25:20;12.90;;;7.83;;
69213;SDS011;56325;47.030;18.518;2023-01-23T14:28:01;13.50;;;9.33;;
69213;SDS011;56325;47.030;18.518;2023-01-23T14:30:37;20.67;;;10.97;;
69213;SDS011;56325;47.030;18.518;2023-01-23T14:33:16;10.83;;;9.70;;
69213;SDS011;56325;47.030;18.518;2023-01-23T14:35:51;10.50;;;6.93;;
69213;SDS011;56325;47.030;18.518;2023-01-23T14:38:28;7.77;;;7.10;;
69213;SDS011;56325;47.030;18.518;2023-01-23T14:41:06;11.87;;;6.80;;
69213;SDS011;56325;47.030;18.518;2023-01-23T14:43:41;7.07;;;6.37;;
69213;SDS011;56325;47.030;18.518;2023-01-23T14:46:17;24.90;;;8.30;;
69213;SDS011;56325;47.030;18.518;2023-01-23T14:48:55;7.70;;;6.27;;
69213;SDS011;56325;47.030;18.518;2023-01-23T14:51:29;5.53;;;4.40;;
69213;SDS011;56325;47.030;18.518;2023-01-23T14:54:05;5.77;;;5.27;;
69213;SDS011;56325;47.030;18.518;2023-01-23T14:56:54;4.95;;;3.95;;
69213;SDS011;56325;47.030;18.518;2023-01-23T14:59:30;5.10;;;4.60;;
69213;SDS011;56325;47.030;18.518;2023-01-23T15:02:53;65.78;;;19.50;;
69213;SDS011;56325;47.030;18.518;2023-01-23T15:05:28;360.60;;;101.90;;
69213;SDS011;56325;47.030;18.518;2023-01-23T15:08:04;335.97;;;91.30;;
69213;SDS011;56325;47.030;18.518;2023-01-23T15:10:52;491.93;;;183.70;;
69213;SDS011;56325;47.030;18.518;2023-01-23T15:13:31;91.63;;;33.47;;
69213;SDS011;56325;47.030;18.518;2023-01-23T15:16:11;22.83;;;11.60;;
69213;SDS011;56325;47.030;18.518;2023-01-23T15:18:53;14.60;;;8.70;;
69213;SDS011;56325;47.030;18.518;2023-01-23T15:21:33;4.97;;;4.47;;
69213;SDS011;56325;47.030;18.518;2023-01-23T15:24:19;17.97;;;8.87;;
69213;SDS011;56325;47.030;18.518;2023-01-23T15:27:02;22.98;;;12.07;;
69213;SDS011;56325;47.030;18.518;2023-01-23T15:29:39;20.63;;;10.83;;
69213;SDS011;56325;47.030;18.518;2023-01-23T15:32:14;10.03;;;7.07;;
69213;SDS011;56325;47.030;18.518;2023-01-23T15:34:55;5.70;;;4.93;;
69213;SDS011;56325;47.030;18.518;2023-01-23T15:37:30;4.40;;;4.00;;
69213;SDS011;56325;47.030;18.518;2023-01-23T15:40:13;5.87;;;4.47;;
69213;SDS011;56325;47.030;18.518;2023-01-23T15:42:59;111.47;;;77.40;;
69213;SDS011;56325;47.030;18.518;2023-01-23T15:45:37;62.87;;;41.30;;
69213;SDS011;56325;47.030;18.518;2023-01-23T15:48:11;12.43;;;9.53;;
69213;SDS011;56325;47.030;18.518;2023-01-23T15:50:47;16.37;;;10.70;;
69213;SDS011;56325;47.030;18.518;2023-01-23T15:53:22;20.13;;;14.87;;
69213;SDS011;56325;47.030;18.518;2023-01-23T15:55:56;23.23;;;15.20;;
69213;SDS011;56325;47.030;18.518;2023-01-23T15:58:33;20.20;;;13.23;;
69213;SDS011;56325;47.030;18.518;2023-01-23T16:01:07;29.27;;;15.87;;